Terminal Aerodrome Forecast
Issued by NWS North Platte, NE

Home | Current Version | Previous Version | Text Only | Print | Product List | Glossary Off
Versions: 1 2 3 4 5 6 7 8 9 10 11 12

650
FTUS43 KLBF 061120
TAFVTN
TAF
KVTN 061120Z 0612/0712 25008KT P6SM SCT250
     FM061800 26012G18KT P6SM BKN250
     FM070000 27006KT P6SM OVC100=

USA.gov is the U.S. government's official web portal to all federal, state and local government web resources and services.